sensor_id;sensor_type;location;lat;lon;timestamp;P1;durP1;ratioP1;P2;durP2;ratioP2
5841;SDS011;2947;52.276;9.946;2022-12-07T00:01:30;32.60;;;16.10;;
5841;SDS011;2947;52.276;9.946;2022-12-07T00:03:59;37.50;;;16.87;;
5841;SDS011;2947;52.276;9.946;2022-12-07T00:06:33;32.03;;;16.40;;
5841;SDS011;2947;52.276;9.946;2022-12-07T00:09:02;33.27;;;14.57;;
5841;SDS011;2947;52.276;9.946;2022-12-07T00:11:29;34.87;;;16.07;;
5841;SDS011;2947;52.276;9.946;2022-12-07T00:13:56;38.57;;;17.40;;
5841;SDS011;2947;52.276;9.946;2022-12-07T00:16:26;37.47;;;17.00;;
5841;SDS011;2947;52.276;9.946;2022-12-07T00:18:55;45.70;;;18.23;;
5841;SDS011;2947;52.276;9.946;2022-12-07T00:21:23;40.70;;;17.00;;
5841;SDS011;2947;52.276;9.946;2022-12-07T00:23:52;41.37;;;18.10;;
5841;SDS011;2947;52.276;9.946;2022-12-07T00:26:32;31.43;;;15.47;;
5841;SDS011;2947;52.276;9.946;2022-12-07T00:29:08;36.20;;;16.57;;
5841;SDS011;2947;52.276;9.946;2022-12-07T00:31:40;34.67;;;16.97;;
5841;SDS011;2947;52.276;9.946;2022-12-07T00:34:06;38.60;;;18.13;;
5841;SDS011;2947;52.276;9.946;2022-12-07T00:36:37;40.77;;;18.33;;
5841;SDS011;2947;52.276;9.946;2022-12-07T00:39:03;41.20;;;17.40;;
5841;SDS011;2947;52.276;9.946;2022-12-07T00:41:29;40.50;;;18.90;;
5841;SDS011;2947;52.276;9.946;2022-12-07T00:43:56;41.80;;;17.40;;
5841;SDS011;2947;52.276;9.946;2022-12-07T00:46:22;51.57;;;18.87;;
5841;SDS011;2947;52.276;9.946;2022-12-07T00:48:49;42.60;;;18.47;;
5841;SDS011;2947;52.276;9.946;2022-12-07T00:51:17;43.13;;;16.57;;
5841;SDS011;2947;52.276;9.946;2022-12-07T00:53:44;36.00;;;18.33;;
5841;SDS011;2947;52.276;9.946;2022-12-07T00:56:11;36.70;;;16.57;;
5841;SDS011;2947;52.276;9.946;2022-12-07T00:58:40;42.77;;;17.80;;
5841;SDS011;2947;52.276;9.946;2022-12-07T01:01:07;40.60;;;18.30;;
5841;SDS011;2947;52.276;9.946;2022-12-07T01:03:35;39.90;;;16.70;;
5841;SDS011;2947;52.276;9.946;2022-12-07T01:06:01;35.10;;;18.50;;
5841;SDS011;2947;52.276;9.946;2022-12-07T01:08:27;35.20;;;16.83;;
5841;SDS011;2947;52.276;9.946;2022-12-07T01:11:01;43.20;;;17.80;;
5841;SDS011;2947;52.276;9.946;2022-12-07T01:13:30;37.10;;;15.93;;
5841;SDS011;2947;52.276;9.946;2022-12-07T01:15:57;35.20;;;16.47;;
5841;SDS011;2947;52.276;9.946;2022-12-07T01:18:25;29.33;;;15.60;;
5841;SDS011;2947;52.276;9.946;2022-12-07T01:20:59;29.53;;;15.30;;
5841;SDS011;2947;52.276;9.946;2022-12-07T01:23:29;39.77;;;16.77;;
5841;SDS011;2947;52.276;9.946;2022-12-07T01:25:59;29.43;;;14.97;;
5841;SDS011;2947;52.276;9.946;2022-12-07T01:28:30;32.23;;;14.57;;
5841;SDS011;2947;52.276;9.946;2022-12-07T01:30:57;33.30;;;15.30;;
5841;SDS011;2947;52.276;9.946;2022-12-07T01:33:34;31.20;;;15.60;;
5841;SDS011;2947;52.276;9.946;2022-12-07T01:36:02;31.57;;;15.33;;
5841;SDS011;2947;52.276;9.946;2022-12-07T01:38:43;26.10;;;13.77;;
5841;SDS011;2947;52.276;9.946;2022-12-07T01:41:11;28.37;;;13.53;;
5841;SDS011;2947;52.276;9.946;2022-12-07T01:44:06;24.30;;;13.50;;
5841;SDS011;2947;52.276;9.946;2022-12-07T01:46:38;29.33;;;15.90;;
5841;SDS011;2947;52.276;9.946;2022-12-07T01:49:09;27.77;;;14.00;;
5841;SDS011;2947;52.276;9.946;2022-12-07T01:51:42;24.97;;;13.87;;
5841;SDS011;2947;52.276;9.946;2022-12-07T01:54:10;23.87;;;13.20;;
5841;SDS011;2947;52.276;9.946;2022-12-07T01:56:38;27.47;;;14.27;;
5841;SDS011;2947;52.276;9.946;2022-12-07T01:59:07;25.80;;;13.60;;
5841;SDS011;2947;52.276;9.946;2022-12-07T02:01:33;27.87;;;14.07;;
5841;SDS011;2947;52.276;9.946;2022-12-07T02:03:59;27.07;;;14.50;;
5841;SDS011;2947;52.276;9.946;2022-12-07T02:06:25;32.27;;;15.23;;
5841;SDS011;2947;52.276;9.946;2022-12-07T02:08:51;27.60;;;15.27;;
5841;SDS011;2947;52.276;9.946;2022-12-07T02:11:18;30.03;;;16.27;;
5841;SDS011;2947;52.276;9.946;2022-12-07T02:13:44;33.33;;;17.40;;
5841;SDS011;2947;52.276;9.946;2022-12-07T02:21:23;29.47;;;15.93;;
5841;SDS011;2947;52.276;9.946;2022-12-07T02:35:23;29.53;;;14.50;;
5841;SDS011;2947;52.276;9.946;2022-12-07T02:38:20;29.87;;;14.80;;
5841;SDS011;2947;52.276;9.946;2022-12-07T02:41:01;30.00;;;13.90;;
5841;SDS011;2947;52.276;9.946;2022-12-07T02:46:20;30.10;;;14.63;;
5841;SDS011;2947;52.276;9.946;2022-12-07T02:48:57;24.10;;;12.60;;
5841;SDS011;2947;52.276;9.946;2022-12-07T02:51:29;24.23;;;13.37;;
5841;SDS011;2947;52.276;9.946;2022-12-07T02:53:56;30.10;;;15.13;;
5841;SDS011;2947;52.276;9.946;2022-12-07T03:05:12;21.07;;;11.37;;
5841;SDS011;2947;52.276;9.946;2022-12-07T03:08:06;21.63;;;12.03;;
5841;SDS011;2947;52.276;9.946;2022-12-07T03:13:23;24.20;;;12.23;;
5841;SDS011;2947;52.276;9.946;2022-12-07T03:18:52;22.13;;;11.57;;
5841;SDS011;2947;52.276;9.946;2022-12-07T03:21:37;29.60;;;12.20;;
5841;SDS011;2947;52.276;9.946;2022-12-07T03:24:21;20.20;;;11.20;;
5841;SDS011;2947;52.276;9.946;2022-12-07T03:26:52;25.07;;;12.80;;
5841;SDS011;2947;52.276;9.946;2022-12-07T03:29:31;24.50;;;11.60;;
5841;SDS011;2947;52.276;9.946;2022-12-07T03:32:17;27.27;;;12.33;;
5841;SDS011;2947;52.276;9.946;2022-12-07T03:34:54;24.90;;;11.53;;
5841;SDS011;2947;52.276;9.946;2022-12-07T03:37:34;22.43;;;11.80;;
5841;SDS011;2947;52.276;9.946;2022-12-07T03:42:37;25.90;;;12.03;;
5841;SDS011;2947;52.276;9.946;2022-12-07T03:45:03;24.00;;;12.93;;
5841;SDS011;2947;52.276;9.946;2022-12-07T03:47:47;37.47;;;14.27;;
5841;SDS011;2947;52.276;9.946;2022-12-07T03:53:39;24.03;;;11.23;;
5841;SDS011;2947;52.276;9.946;2022-12-07T03:56:11;23.30;;;11.20;;
5841;SDS011;2947;52.276;9.946;2022-12-07T03:58:38;18.63;;;11.87;;
5841;SDS011;2947;52.276;9.946;2022-12-07T04:01:05;19.87;;;10.70;;
5841;SDS011;2947;52.276;9.946;2022-12-07T04:03:31;25.13;;;11.43;;
5841;SDS011;2947;52.276;9.946;2022-12-07T04:05:57;32.43;;;11.30;;
5841;SDS011;2947;52.276;9.946;2022-12-07T04:08:23;28.10;;;12.13;;
5841;SDS011;2947;52.276;9.946;2022-12-07T04:10:49;23.50;;;10.50;;
5841;SDS011;2947;52.276;9.946;2022-12-07T04:13:15;22.70;;;9.67;;
5841;SDS011;2947;52.276;9.946;2022-12-07T04:15:41;21.70;;;10.23;;
5841;SDS011;2947;52.276;9.946;2022-12-07T04:18:06;22.50;;;10.00;;
5841;SDS011;2947;52.276;9.946;2022-12-07T04:20:32;16.77;;;9.27;;
5841;SDS011;2947;52.276;9.946;2022-12-07T04:22:58;17.03;;;8.70;;
5841;SDS011;2947;52.276;9.946;2022-12-07T04:25:24;24.13;;;9.97;;
5841;SDS011;2947;52.276;9.946;2022-12-07T04:27:49;23.33;;;10.70;;
5841;SDS011;2947;52.276;9.946;2022-12-07T04:30:15;20.47;;;10.83;;
5841;SDS011;2947;52.276;9.946;2022-12-07T04:32:41;18.60;;;8.83;;
5841;SDS011;2947;52.276;9.946;2022-12-07T04:35:06;20.30;;;8.53;;
5841;SDS011;2947;52.276;9.946;2022-12-07T04:37:33;17.93;;;8.80;;
5841;SDS011;2947;52.276;9.946;2022-12-07T04:39:58;21.33;;;9.37;;
5841;SDS011;2947;52.276;9.946;2022-12-07T04:42:24;19.97;;;9.07;;
5841;SDS011;2947;52.276;9.946;2022-12-07T04:44:50;16.13;;;8.73;;
5841;SDS011;2947;52.276;9.946;2022-12-07T04:47:16;18.80;;;8.70;;
5841;SDS011;2947;52.276;9.946;2022-12-07T04:49:41;17.97;;;9.20;;
5841;SDS011;2947;52.276;9.946;2022-12-07T04:52:08;20.30;;;9.83;;
5841;SDS011;2947;52.276;9.946;2022-12-07T04:54:34;20.43;;;8.90;;
5841;SDS011;2947;52.276;9.946;2022-12-07T04:56:59;21.20;;;8.80;;
5841;SDS011;2947;52.276;9.946;2022-12-07T04:59:25;19.87;;;9.80;;
5841;SDS011;2947;52.276;9.946;2022-12-07T05:01:51;24.63;;;10.70;;
5841;SDS011;2947;52.276;9.946;2022-12-07T05:04:17;21.10;;;8.90;;
5841;SDS011;2947;52.276;9.946;2022-12-07T05:06:43;27.43;;;10.37;;
5841;SDS011;2947;52.276;9.946;2022-12-07T05:09:09;19.40;;;9.20;;
5841;SDS011;2947;52.276;9.946;2022-12-07T05:11:34;27.27;;;10.80;;
5841;SDS011;2947;52.276;9.946;2022-12-07T05:14:13;22.50;;;10.30;;
5841;SDS011;2947;52.276;9.946;2022-12-07T05:16:43;23.30;;;8.90;;
5841;SDS011;2947;52.276;9.946;2022-12-07T05:19:10;19.80;;;8.80;;
5841;SDS011;2947;52.276;9.946;2022-12-07T05:21:37;20.67;;;8.80;;
5841;SDS011;2947;52.276;9.946;2022-12-07T05:24:04;20.83;;;7.90;;
5841;SDS011;2947;52.276;9.946;2022-12-07T05:26:31;25.63;;;8.37;;
5841;SDS011;2947;52.276;9.946;2022-12-07T05:28:57;17.03;;;7.80;;
5841;SDS011;2947;52.276;9.946;2022-12-07T05:31:23;18.40;;;7.60;;
5841;SDS011;2947;52.276;9.946;2022-12-07T05:33:51;15.43;;;7.67;;
5841;SDS011;2947;52.276;9.946;2022-12-07T05:36:16;22.83;;;7.63;;
5841;SDS011;2947;52.276;9.946;2022-12-07T05:38:42;15.60;;;7.43;;
5841;SDS011;2947;52.276;9.946;2022-12-07T05:41:08;16.23;;;6.93;;
5841;SDS011;2947;52.276;9.946;2022-12-07T05:43:58;21.23;;;7.23;;
5841;SDS011;2947;52.276;9.946;2022-12-07T05:46:25;15.10;;;7.23;;
5841;SDS011;2947;52.276;9.946;2022-12-07T05:48:51;14.03;;;6.77;;
5841;SDS011;2947;52.276;9.946;2022-12-07T05:51:17;18.43;;;8.70;;
5841;SDS011;2947;52.276;9.946;2022-12-07T05:53:42;17.83;;;6.50;;
5841;SDS011;2947;52.276;9.946;2022-12-07T05:56:08;12.27;;;5.20;;
5841;SDS011;2947;52.276;9.946;2022-12-07T05:58:34;12.93;;;5.60;;
5841;SDS011;2947;52.276;9.946;2022-12-07T06:01:18;13.90;;;5.77;;
5841;SDS011;2947;52.276;9.946;2022-12-07T06:03:43;11.80;;;5.10;;
5841;SDS011;2947;52.276;9.946;2022-12-07T06:06:11;21.10;;;6.83;;
5841;SDS011;2947;52.276;9.946;2022-12-07T06:08:37;13.87;;;4.80;;
5841;SDS011;2947;52.276;9.946;2022-12-07T06:11:02;12.63;;;5.17;;
5841;SDS011;2947;52.276;9.946;2022-12-07T06:13:46;11.43;;;5.27;;
5841;SDS011;2947;52.276;9.946;2022-12-07T06:16:12;11.73;;;5.30;;
5841;SDS011;2947;52.276;9.946;2022-12-07T06:18:38;12.73;;;5.57;;
5841;SDS011;2947;52.276;9.946;2022-12-07T06:21:03;13.67;;;5.10;;
5841;SDS011;2947;52.276;9.946;2022-12-07T06:23:29;13.90;;;5.07;;
5841;SDS011;2947;52.276;9.946;2022-12-07T06:25:55;12.47;;;5.77;;
5841;SDS011;2947;52.276;9.946;2022-12-07T06:28:20;13.50;;;5.40;;
5841;SDS011;2947;52.276;9.946;2022-12-07T06:30:46;13.10;;;6.10;;
5841;SDS011;2947;52.276;9.946;2022-12-07T06:33:12;9.33;;;4.73;;
5841;SDS011;2947;52.276;9.946;2022-12-07T06:35:37;16.20;;;5.53;;
5841;SDS011;2947;52.276;9.946;2022-12-07T06:38:03;9.77;;;4.70;;
5841;SDS011;2947;52.276;9.946;2022-12-07T06:40:29;15.83;;;5.40;;
5841;SDS011;2947;52.276;9.946;2022-12-07T06:42:54;13.73;;;5.03;;
5841;SDS011;2947;52.276;9.946;2022-12-07T06:45:20;16.50;;;5.40;;
5841;SDS011;2947;52.276;9.946;2022-12-07T06:47:46;12.20;;;5.03;;
5841;SDS011;2947;52.276;9.946;2022-12-07T06:50:11;12.50;;;5.20;;
5841;SDS011;2947;52.276;9.946;2022-12-07T06:52:37;13.43;;;5.30;;
5841;SDS011;2947;52.276;9.946;2022-12-07T06:55:03;9.40;;;4.47;;
5841;SDS011;2947;52.276;9.946;2022-12-07T06:57:29;14.70;;;4.70;;
5841;SDS011;2947;52.276;9.946;2022-12-07T06:59:55;24.30;;;5.20;;
5841;SDS011;2947;52.276;9.946;2022-12-07T07:02:20;11.83;;;4.53;;
5841;SDS011;2947;52.276;9.946;2022-12-07T07:04:46;12.10;;;4.33;;
5841;SDS011;2947;52.276;9.946;2022-12-07T07:07:12;10.80;;;4.23;;
5841;SDS011;2947;52.276;9.946;2022-12-07T07:09:37;14.83;;;4.17;;
5841;SDS011;2947;52.276;9.946;2022-12-07T07:12:03;9.10;;;4.43;;
5841;SDS011;2947;52.276;9.946;2022-12-07T07:14:29;11.97;;;5.27;;
5841;SDS011;2947;52.276;9.946;2022-12-07T07:16:54;12.27;;;3.57;;
5841;SDS011;2947;52.276;9.946;2022-12-07T07:19:20;11.07;;;5.10;;
5841;SDS011;2947;52.276;9.946;2022-12-07T07:21:46;10.47;;;4.10;;
5841;SDS011;2947;52.276;9.946;2022-12-07T07:24:11;12.40;;;4.43;;
5841;SDS011;2947;52.276;9.946;2022-12-07T07:26:37;16.17;;;3.90;;
5841;SDS011;2947;52.276;9.946;2022-12-07T07:29:03;6.33;;;3.50;;
5841;SDS011;2947;52.276;9.946;2022-12-07T07:31:28;11.80;;;3.33;;
5841;SDS011;2947;52.276;9.946;2022-12-07T07:33:54;9.33;;;3.73;;
5841;SDS011;2947;52.276;9.946;2022-12-07T07:36:20;8.83;;;3.90;;
5841;SDS011;2947;52.276;9.946;2022-12-07T07:38:45;9.07;;;3.50;;
5841;SDS011;2947;52.276;9.946;2022-12-07T07:41:11;6.70;;;3.50;;
5841;SDS011;2947;52.276;9.946;2022-12-07T07:43:37;7.43;;;3.47;;
5841;SDS011;2947;52.276;9.946;2022-12-07T07:46:02;7.87;;;3.67;;
5841;SDS011;2947;52.276;9.946;2022-12-07T07:48:28;15.63;;;3.30;;
5841;SDS011;2947;52.276;9.946;2022-12-07T07:50:54;8.70;;;2.93;;
5841;SDS011;2947;52.276;9.946;2022-12-07T07:53:19;11.50;;;2.60;;
5841;SDS011;2947;52.276;9.946;2022-12-07T07:55:52;6.27;;;3.70;;
5841;SDS011;2947;52.276;9.946;2022-12-07T07:58:19;9.03;;;2.63;;
5841;SDS011;2947;52.276;9.946;2022-12-07T08:00:45;9.77;;;3.13;;
5841;SDS011;2947;52.276;9.946;2022-12-07T08:03:10;9.93;;;2.80;;
5841;SDS011;2947;52.276;9.946;2022-12-07T08:05:37;7.47;;;2.70;;
5841;SDS011;2947;52.276;9.946;2022-12-07T08:08:03;7.57;;;2.53;;
5841;SDS011;2947;52.276;9.946;2022-12-07T08:10:29;7.90;;;2.83;;
5841;SDS011;2947;52.276;9.946;2022-12-07T08:12:57;6.63;;;2.60;;
5841;SDS011;2947;52.276;9.946;2022-12-07T08:15:35;9.80;;;2.80;;
5841;SDS011;2947;52.276;9.946;2022-12-07T08:18:03;12.83;;;2.30;;
5841;SDS011;2947;52.276;9.946;2022-12-07T08:20:29;12.40;;;2.60;;
5841;SDS011;2947;52.276;9.946;2022-12-07T08:22:57;10.03;;;2.57;;
5841;SDS011;2947;52.276;9.946;2022-12-07T08:25:23;7.93;;;2.90;;
5841;SDS011;2947;52.276;9.946;2022-12-07T08:27:50;12.10;;;2.60;;
5841;SDS011;2947;52.276;9.946;2022-12-07T08:30:16;10.97;;;2.27;;
5841;SDS011;2947;52.276;9.946;2022-12-07T08:32:46;12.30;;;2.30;;
5841;SDS011;2947;52.276;9.946;2022-12-07T08:35:13;8.43;;;2.30;;
5841;SDS011;2947;52.276;9.946;2022-12-07T08:37:39;4.53;;;1.63;;
5841;SDS011;2947;52.276;9.946;2022-12-07T08:40:06;8.97;;;2.20;;
5841;SDS011;2947;52.276;9.946;2022-12-07T08:42:34;7.83;;;2.30;;
5841;SDS011;2947;52.276;9.946;2022-12-07T08:45:08;6.53;;;1.50;;
5841;SDS011;2947;52.276;9.946;2022-12-07T08:47:38;9.07;;;2.07;;
5841;SDS011;2947;52.276;9.946;2022-12-07T08:50:10;4.90;;;1.97;;
5841;SDS011;2947;52.276;9.946;2022-12-07T08:52:37;8.53;;;1.77;;
5841;SDS011;2947;52.276;9.946;2022-12-07T08:55:04;5.60;;;1.80;;
5841;SDS011;2947;52.276;9.946;2022-12-07T08:57:31;3.57;;;2.00;;
5841;SDS011;2947;52.276;9.946;2022-12-07T08:59:59;8.87;;;2.10;;
5841;SDS011;2947;52.276;9.946;2022-12-07T09:02:24;6.93;;;1.87;;
5841;SDS011;2947;52.276;9.946;2022-12-07T09:04:50;7.10;;;1.50;;
5841;SDS011;2947;52.276;9.946;2022-12-07T09:07:16;10.80;;;2.30;;
5841;SDS011;2947;52.276;9.946;2022-12-07T09:09:42;15.47;;;2.03;;
5841;SDS011;2947;52.276;9.946;2022-12-07T09:12:08;4.23;;;1.80;;
5841;SDS011;2947;52.276;9.946;2022-12-07T09:14:33;11.73;;;2.20;;
5841;SDS011;2947;52.276;9.946;2022-12-07T09:17:06;5.20;;;1.87;;
5841;SDS011;2947;52.276;9.946;2022-12-07T09:19:38;12.53;;;2.00;;
5841;SDS011;2947;52.276;9.946;2022-12-07T09:22:06;11.70;;;1.87;;
5841;SDS011;2947;52.276;9.946;2022-12-07T09:24:32;7.57;;;2.47;;
5841;SDS011;2947;52.276;9.946;2022-12-07T09:26:58;3.90;;;1.67;;
5841;SDS011;2947;52.276;9.946;2022-12-07T09:29:24;6.50;;;2.00;;
5841;SDS011;2947;52.276;9.946;2022-12-07T09:31:50;6.27;;;1.50;;
5841;SDS011;2947;52.276;9.946;2022-12-07T09:34:18;4.83;;;1.40;;
5841;SDS011;2947;52.276;9.946;2022-12-07T09:36:45;3.73;;;1.47;;
5841;SDS011;2947;52.276;9.946;2022-12-07T09:39:11;5.17;;;1.20;;
5841;SDS011;2947;52.276;9.946;2022-12-07T09:41:40;5.00;;;2.10;;
5841;SDS011;2947;52.276;9.946;2022-12-07T09:44:13;8.10;;;1.67;;
5841;SDS011;2947;52.276;9.946;2022-12-07T09:46:49;3.20;;;1.80;;
5841;SDS011;2947;52.276;9.946;2022-12-07T09:49:22;6.30;;;1.77;;
5841;SDS011;2947;52.276;9.946;2022-12-07T09:51:59;4.90;;;1.47;;
5841;SDS011;2947;52.276;9.946;2022-12-07T09:54:27;4.20;;;2.10;;
5841;SDS011;2947;52.276;9.946;2022-12-07T09:56:55;7.00;;;1.87;;
5841;SDS011;2947;52.276;9.946;2022-12-07T09:59:21;6.63;;;1.60;;
5841;SDS011;2947;52.276;9.946;2022-12-07T10:01:47;5.97;;;2.00;;
5841;SDS011;2947;52.276;9.946;2022-12-07T10:06:46;9.13;;;1.80;;
5841;SDS011;2947;52.276;9.946;2022-12-07T10:09:14;10.03;;;2.00;;
5841;SDS011;2947;52.276;9.946;2022-12-07T10:14:27;4.77;;;1.50;;
5841;SDS011;2947;52.276;9.946;2022-12-07T10:16:55;6.33;;;1.50;;
5841;SDS011;2947;52.276;9.946;2022-12-07T10:19:31;4.00;;;1.10;;
5841;SDS011;2947;52.276;9.946;2022-12-07T10:22:19;6.70;;;1.40;;
5841;SDS011;2947;52.276;9.946;2022-12-07T10:24:46;7.10;;;1.30;;
5841;SDS011;2947;52.276;9.946;2022-12-07T10:30:01;5.70;;;1.50;;
5841;SDS011;2947;52.276;9.946;2022-12-07T10:32:38;6.87;;;1.40;;
5841;SDS011;2947;52.276;9.946;2022-12-07T10:37:57;6.50;;;1.20;;
5841;SDS011;2947;52.276;9.946;2022-12-07T10:40:28;5.60;;;1.33;;
5841;SDS011;2947;52.276;9.946;2022-12-07T10:43:00;2.87;;;1.00;;
5841;SDS011;2947;52.276;9.946;2022-12-07T10:45:45;3.13;;;1.10;;
5841;SDS011;2947;52.276;9.946;2022-12-07T10:48:25;4.27;;;1.13;;
5841;SDS011;2947;52.276;9.946;2022-12-07T10:56:31;4.13;;;1.10;;
5841;SDS011;2947;52.276;9.946;2022-12-07T11:01:55;3.57;;;1.00;;
5841;SDS011;2947;52.276;9.946;2022-12-07T11:04:55;3.83;;;1.40;;
5841;SDS011;2947;52.276;9.946;2022-12-07T11:16:42;3.57;;;1.20;;
5841;SDS011;2947;52.276;9.946;2022-12-07T11:19:34;5.23;;;1.40;;
5841;SDS011;2947;52.276;9.946;2022-12-07T11:22:37;9.47;;;1.80;;
5841;SDS011;2947;52.276;9.946;2022-12-07T11:25:32;6.03;;;1.47;;
5841;SDS011;2947;52.276;9.946;2022-12-07T11:31:12;8.23;;;1.70;;
5841;SDS011;2947;52.276;9.946;2022-12-07T11:39:15;8.97;;;2.03;;
5841;SDS011;2947;52.276;9.946;2022-12-07T11:41:44;7.30;;;1.87;;
5841;SDS011;2947;52.276;9.946;2022-12-07T11:44:26;4.17;;;1.30;;
5841;SDS011;2947;52.276;9.946;2022-12-07T11:47:16;1.70;;;0.77;;
5841;SDS011;2947;52.276;9.946;2022-12-07T11:55:41;6.57;;;0.93;;
5841;SDS011;2947;52.276;9.946;2022-12-07T12:04:07;4.20;;;0.90;;
5841;SDS011;2947;52.276;9.946;2022-12-07T12:06:48;4.53;;;1.10;;
5841;SDS011;2947;52.276;9.946;2022-12-07T12:12:23;1.10;;;0.40;;
5841;SDS011;2947;52.276;9.946;2022-12-07T12:21:33;2.77;;;0.80;;
5841;SDS011;2947;52.276;9.946;2022-12-07T12:24:00;7.50;;;1.60;;
5841;SDS011;2947;52.276;9.946;2022-12-07T12:26:37;2.10;;;1.20;;
5841;SDS011;2947;52.276;9.946;2022-12-07T12:29:17;3.07;;;1.50;;
5841;SDS011;2947;52.276;9.946;2022-12-07T12:32:08;4.37;;;1.70;;
5841;SDS011;2947;52.276;9.946;2022-12-07T12:42:55;7.23;;;2.40;;
5841;SDS011;2947;52.276;9.946;2022-12-07T12:45:26;13.03;;;1.77;;
5841;SDS011;2947;52.276;9.946;2022-12-07T12:48:04;4.70;;;1.60;;
5841;SDS011;2947;52.276;9.946;2022-12-07T12:51:40;3.73;;;1.80;;
5841;SDS011;2947;52.276;9.946;2022-12-07T13:02:30;15.67;;;2.30;;
5841;SDS011;2947;52.276;9.946;2022-12-07T13:18:48;6.60;;;2.00;;
5841;SDS011;2947;52.276;9.946;2022-12-07T13:20:56;8.83;;;1.70;;
5841;SDS011;2947;52.276;9.946;2022-12-07T13:23:57;4.90;;;1.83;;
5841;SDS011;2947;52.276;9.946;2022-12-07T13:26:43;9.13;;;1.50;;
5841;SDS011;2947;52.276;9.946;2022-12-07T13:31:43;10.57;;;2.03;;
5841;SDS011;2947;52.276;9.946;2022-12-07T13:39:53;7.80;;;2.00;;
5841;SDS011;2947;52.276;9.946;2022-12-07T13:42:31;3.03;;;1.40;;
5841;SDS011;2947;52.276;9.946;2022-12-07T13:44:59;3.80;;;1.33;;
5841;SDS011;2947;52.276;9.946;2022-12-07T13:47:49;6.77;;;1.63;;
5841;SDS011;2947;52.276;9.946;2022-12-07T13:50:23;6.67;;;1.53;;
5841;SDS011;2947;52.276;9.946;2022-12-07T13:52:59;5.57;;;1.80;;
5841;SDS011;2947;52.276;9.946;2022-12-07T13:55:26;8.00;;;1.70;;
5841;SDS011;2947;52.276;9.946;2022-12-07T13:57:54;10.83;;;2.00;;
5841;SDS011;2947;52.276;9.946;2022-12-07T14:05:26;7.03;;;1.73;;
5841;SDS011;2947;52.276;9.946;2022-12-07T14:08:01;5.00;;;1.50;;
5841;SDS011;2947;52.276;9.946;2022-12-07T14:10:30;9.00;;;2.00;;
5841;SDS011;2947;52.276;9.946;2022-12-07T14:12:58;9.17;;;2.40;;
5841;SDS011;2947;52.276;9.946;2022-12-07T14:15:28;10.97;;;2.53;;
5841;SDS011;2947;52.276;9.946;2022-12-07T14:17:58;8.97;;;2.23;;
5841;SDS011;2947;52.276;9.946;2022-12-07T14:20:29;7.23;;;1.77;;
5841;SDS011;2947;52.276;9.946;2022-12-07T14:23:02;12.67;;;1.87;;
5841;SDS011;2947;52.276;9.946;2022-12-07T14:25:46;12.07;;;1.77;;
5841;SDS011;2947;52.276;9.946;2022-12-07T14:28:28;4.10;;;2.03;;
5841;SDS011;2947;52.276;9.946;2022-12-07T14:30:57;6.97;;;1.70;;
5841;SDS011;2947;52.276;9.946;2022-12-07T14:33:23;5.47;;;1.47;;
5841;SDS011;2947;52.276;9.946;2022-12-07T14:35:50;5.27;;;1.07;;
5841;SDS011;2947;52.276;9.946;2022-12-07T14:38:21;9.47;;;1.40;;
5841;SDS011;2947;52.276;9.946;2022-12-07T14:40:47;12.67;;;2.27;;
5841;SDS011;2947;52.276;9.946;2022-12-07T14:43:15;7.03;;;1.80;;
5841;SDS011;2947;52.276;9.946;2022-12-07T14:45:42;10.00;;;2.83;;
5841;SDS011;2947;52.276;9.946;2022-12-07T14:48:10;8.30;;;2.30;;
5841;SDS011;2947;52.276;9.946;2022-12-07T14:50:39;11.80;;;1.77;;
5841;SDS011;2947;52.276;9.946;2022-12-07T14:53:10;3.83;;;1.80;;
5841;SDS011;2947;52.276;9.946;2022-12-07T14:55:43;7.03;;;1.50;;
5841;SDS011;2947;52.276;9.946;2022-12-07T14:58:13;7.03;;;2.20;;
5841;SDS011;2947;52.276;9.946;2022-12-07T15:00:41;3.57;;;1.77;;
5841;SDS011;2947;52.276;9.946;2022-12-07T15:03:07;13.10;;;2.00;;
5841;SDS011;2947;52.276;9.946;2022-12-07T15:05:33;10.00;;;1.50;;
5841;SDS011;2947;52.276;9.946;2022-12-07T15:07:59;6.67;;;2.00;;
5841;SDS011;2947;52.276;9.946;2022-12-07T15:10:26;11.57;;;2.30;;
5841;SDS011;2947;52.276;9.946;2022-12-07T15:13:00;8.80;;;1.60;;
5841;SDS011;2947;52.276;9.946;2022-12-07T15:15:53;4.13;;;2.07;;
5841;SDS011;2947;52.276;9.946;2022-12-07T15:18:19;14.10;;;1.80;;
5841;SDS011;2947;52.276;9.946;2022-12-07T15:20:47;8.70;;;2.40;;
5841;SDS011;2947;52.276;9.946;2022-12-07T15:23:13;6.23;;;1.63;;
5841;SDS011;2947;52.276;9.946;2022-12-07T15:25:40;4.53;;;1.60;;
5841;SDS011;2947;52.276;9.946;2022-12-07T15:28:07;8.20;;;1.97;;
5841;SDS011;2947;52.276;9.946;2022-12-07T15:30:33;6.17;;;1.50;;
5841;SDS011;2947;52.276;9.946;2022-12-07T15:32:59;6.83;;;2.00;;
5841;SDS011;2947;52.276;9.946;2022-12-07T15:35:26;5.47;;;1.73;;
5841;SDS011;2947;52.276;9.946;2022-12-07T15:37:57;5.23;;;1.90;;
5841;SDS011;2947;52.276;9.946;2022-12-07T15:40:22;9.77;;;1.60;;
5841;SDS011;2947;52.276;9.946;2022-12-07T15:42:48;9.40;;;1.50;;
5841;SDS011;2947;52.276;9.946;2022-12-07T15:45:14;6.70;;;1.50;;
5841;SDS011;2947;52.276;9.946;2022-12-07T15:47:40;6.57;;;1.50;;
5841;SDS011;2947;52.276;9.946;2022-12-07T15:50:11;7.23;;;1.80;;
5841;SDS011;2947;52.276;9.946;2022-12-07T15:52:39;5.73;;;1.87;;
5841;SDS011;2947;52.276;9.946;2022-12-07T15:55:05;8.93;;;3.00;;
5841;SDS011;2947;52.276;9.946;2022-12-07T15:57:32;10.47;;;2.00;;
5841;SDS011;2947;52.276;9.946;2022-12-07T16:00:00;7.67;;;2.20;;
5841;SDS011;2947;52.276;9.946;2022-12-07T16:02:26;6.30;;;1.63;;
5841;SDS011;2947;52.276;9.946;2022-12-07T16:04:52;9.43;;;2.10;;
5841;SDS011;2947;52.276;9.946;2022-12-07T16:07:18;11.73;;;1.90;;
5841;SDS011;2947;52.276;9.946;2022-12-07T16:09:44;14.73;;;2.87;;
5841;SDS011;2947;52.276;9.946;2022-12-07T16:12:11;11.03;;;2.30;;
5841;SDS011;2947;52.276;9.946;2022-12-07T16:14:38;5.70;;;1.97;;
5841;SDS011;2947;52.276;9.946;2022-12-07T16:17:05;11.43;;;2.60;;
5841;SDS011;2947;52.276;9.946;2022-12-07T16:19:32;9.47;;;3.27;;
5841;SDS011;2947;52.276;9.946;2022-12-07T16:21:59;7.23;;;2.07;;
5841;SDS011;2947;52.276;9.946;2022-12-07T16:24:25;10.30;;;2.50;;
5841;SDS011;2947;52.276;9.946;2022-12-07T16:26:51;16.43;;;4.73;;
5841;SDS011;2947;52.276;9.946;2022-12-07T16:29:18;14.00;;;3.70;;
5841;SDS011;2947;52.276;9.946;2022-12-07T16:31:46;14.20;;;2.60;;
5841;SDS011;2947;52.276;9.946;2022-12-07T16:34:12;4.40;;;2.07;;
5841;SDS011;2947;52.276;9.946;2022-12-07T16:36:38;12.20;;;1.63;;
5841;SDS011;2947;52.276;9.946;2022-12-07T16:39:04;8.07;;;3.27;;
5841;SDS011;2947;52.276;9.946;2022-12-07T16:41:31;7.70;;;3.30;;
5841;SDS011;2947;52.276;9.946;2022-12-07T16:43:56;5.80;;;3.10;;
5841;SDS011;2947;52.276;9.946;2022-12-07T16:46:27;6.93;;;1.93;;
5841;SDS011;2947;52.276;9.946;2022-12-07T16:48:53;7.63;;;2.70;;
5841;SDS011;2947;52.276;9.946;2022-12-07T16:51:19;6.63;;;1.97;;
5841;SDS011;2947;52.276;9.946;2022-12-07T16:53:44;6.10;;;2.50;;
5841;SDS011;2947;52.276;9.946;2022-12-07T16:56:11;13.43;;;2.40;;
5841;SDS011;2947;52.276;9.946;2022-12-07T16:58:39;11.10;;;2.13;;
5841;SDS011;2947;52.276;9.946;2022-12-07T17:01:10;5.37;;;2.13;;
5841;SDS011;2947;52.276;9.946;2022-12-07T17:03:39;9.23;;;2.77;;
5841;SDS011;2947;52.276;9.946;2022-12-07T17:06:15;9.80;;;2.43;;
5841;SDS011;2947;52.276;9.946;2022-12-07T17:08:44;7.93;;;2.60;;
5841;SDS011;2947;52.276;9.946;2022-12-07T17:11:11;11.63;;;2.73;;
5841;SDS011;2947;52.276;9.946;2022-12-07T17:13:42;9.77;;;2.37;;
5841;SDS011;2947;52.276;9.946;2022-12-07T17:16:27;7.50;;;2.73;;
5841;SDS011;2947;52.276;9.946;2022-12-07T17:18:53;7.60;;;3.20;;
5841;SDS011;2947;52.276;9.946;2022-12-07T17:21:19;11.67;;;2.90;;
5841;SDS011;2947;52.276;9.946;2022-12-07T17:23:45;7.27;;;3.13;;
5841;SDS011;2947;52.276;9.946;2022-12-07T17:26:16;6.77;;;3.10;;
5841;SDS011;2947;52.276;9.946;2022-12-07T17:28:45;8.67;;;2.17;;
5841;SDS011;2947;52.276;9.946;2022-12-07T17:31:11;6.63;;;2.63;;
5841;SDS011;2947;52.276;9.946;2022-12-07T17:33:40;10.80;;;2.27;;
5841;SDS011;2947;52.276;9.946;2022-12-07T17:36:12;11.20;;;2.67;;
5841;SDS011;2947;52.276;9.946;2022-12-07T17:38:43;10.83;;;2.70;;
5841;SDS011;2947;52.276;9.946;2022-12-07T17:41:13;11.53;;;2.80;;
5841;SDS011;2947;52.276;9.946;2022-12-07T17:44:03;4.80;;;2.30;;